Saint Maurice, Louisiana
Current Conditions -  °F | °C
As of 3:55 PM on Saturday 25 Oct 2014 (Local Time) from KIER Reporting Station
Clear Clear  
Wind Chill: 84°   Ceiling: Unl
Heat Index: 84°   Visibility: 10mi
Dew Point: 55°   Wind: 5mph
Humidity: 37%   Direction: 270°W
Pressure: 30.09"   Gusts: NA
Location:  31.76°N, 92.96°W
Report Text: KIER 252055Z AUTO 27004KT 10SM CLR 29/13 A3009 RMK AO2 T02910130
Loading
Personal Weather Stations






























Interactive Weather Map
Tropical Storm Tracking
New forecast layout! Learn more

10-Day Weather Forecast

Advertisements
Track Severe Weather on mobile